Time;durP1;ratioP1;P1;durP2;ratioP2;P2;SDS_P1;SDS_P2;PMS_P1;PMS_P2;Temp;Humidity;BMP_temperature;BMP_pressure;BME280_temperature;BME280_humidity;BME280_pressure;Samples;Min_cycle;Max_cycle;Signal;HPM_P1;HPM_P2
2023/10/05 00:02:56;;;;;;;11.77;4.30;;;;;;;;;;5044438;28;20469;-67
2023/10/05 00:05:23;;;;;;;11.27;4.70;;;;;;;;;;5044297;28;20948;-66
2023/10/05 00:07:50;;;;;;;13.95;4.93;;;;;;;;;;5038352;28;20427;-67
2023/10/05 00:10:17;;;;;;;13.10;4.47;;;;;;;;;;5046964;28;20779;-67
2023/10/05 00:12:47;;;;;;;12.15;4.15;;;;;;;;;;5038152;28;20423;-67
2023/10/05 00:15:14;;;;;;;12.27;4.75;;;;;;;;;;5040301;28;20468;-67
2023/10/05 00:17:42;;;;;;;14.17;5.53;;;;;;;;;;5039480;28;20534;-66
2023/10/05 00:20:10;;;;;;;13.85;4.32;;;;;;;;;;5038324;28;20422;-66
2023/10/05 00:22:40;;;;;;;11.07;4.10;;;;;;;;;;5041920;28;20770;-66
2023/10/05 00:25:09;;;;;;;13.10;4.50;;;;;;;;;;5042215;28;20457;-66
2023/10/05 00:27:37;;;;;;;13.25;5.30;;;;;;;;;;5029862;28;20505;-72
2023/10/05 00:30:06;;;;;;;13.93;4.25;;;;;;;;;;5029800;28;20414;-66
2023/10/05 00:32:36;;;;;;;10.65;3.88;;;;;;;;;;5029593;28;20415;-66
2023/10/05 00:35:16;;;;;;;13.43;4.40;;;;;;;;;;5029630;28;20464;-66
2023/10/05 00:37:45;;;;;;;11.38;4.00;;;;;;;;;;5037075;28;20452;-67
2023/10/05 00:40:17;;;;;;;12.02;3.85;;;;;;;;;;5039449;28;20460;-66
2023/10/05 00:42:44;;;;;;;12.52;4.05;;;;;;;;;;5041098;28;20469;-66
2023/10/05 00:45:13;;;;;;;10.43;3.80;;;;;;;;;;5039038;28;20420;-67
2023/10/05 00:47:42;;;;;;;10.27;3.50;;;;;;;;;;5038557;28;20490;-66
2023/10/05 00:50:11;;;;;;;13.68;4.25;;;;;;;;;;5038076;28;20806;-66
2023/10/05 00:52:39;;;;;;;10.93;3.92;;;;;;;;;;5041191;28;20440;-66
2023/10/05 00:55:11;;;;;;;12.27;4.22;;;;;;;;;;5041521;28;20436;-66
2023/10/05 00:57:38;;;;;;;11.75;4.20;;;;;;;;;;5036789;28;20976;-66
2023/10/05 01:00:26;;;;;;;9.80;3.70;;;;;;;;;;5040192;28;20417;-67
2023/10/05 01:03:22;;;;;;;10.10;3.72;;;;;;;;;;5029669;28;20543;-66
2023/10/05 01:06:01;;;;;;;10.55;3.92;;;;;;;;;;5038041;28;20417;-67
2023/10/05 01:08:31;;;;;;;13.00;3.67;;;;;;;;;;5038002;28;21004;-67
2023/10/05 01:11:01;;;;;;;8.40;3.60;;;;;;;;;;5038032;28;20415;-66
2023/10/05 01:13:32;;;;;;;12.15;3.97;;;;;;;;;;5042347;28;20425;-67
2023/10/05 01:15:59;;;;;;;8.77;3.55;;;;;;;;;;5047786;28;20980;-66
2023/10/05 01:18:30;;;;;;;10.35;3.42;;;;;;;;;;5043155;28;20417;-67
2023/10/05 01:21:00;;;;;;;11.23;3.80;;;;;;;;;;5048485;28;20573;-67
2023/10/05 01:23:37;;;;;;;12.23;3.70;;;;;;;;;;5046601;28;20867;-66
2023/10/05 01:26:04;;;;;;;11.07;3.47;;;;;;;;;;5047289;28;20920;-66
2023/10/05 01:28:32;;;;;;;10.45;3.42;;;;;;;;;;5043203;28;20467;-66
2023/10/05 01:31:04;;;;;;;9.38;3.28;;;;;;;;;;5043454;28;20420;-66
2023/10/05 01:33:31;;;;;;;9.63;3.45;;;;;;;;;;5040579;28;20534;-67
2023/10/05 01:35:58;;;;;;;9.35;3.03;;;13.20;99.90;;;;;;5042056;28;20458;-66
2023/10/05 01:38:25;;;;;;;10.15;3.60;;;13.30;99.90;;;;;;5043518;28;20416;-66
2023/10/05 01:40:54;;;;;;;10.68;3.22;;;13.10;99.90;;;;;;5032712;28;20410;-66
2023/10/05 01:43:22;;;;;;;9.80;3.30;;;13.10;99.90;;;;;;5032469;28;20862;-66
2023/10/05 01:45:49;;;;;;;8.70;3.40;;;13.20;99.90;;;;;;5032235;28;20480;-66
2023/10/05 01:48:18;;;;;;;8.75;3.15;;;13.20;99.90;;;;;;5032236;28;20414;-66
2023/10/05 01:50:45;;;;;;;11.13;3.35;;;13.40;99.90;;;;;;5032275;28;20480;-66
2023/10/05 01:53:15;;;;;;;9.18;3.30;;;13.10;99.90;;;;;;5046574;28;20818;-66
2023/10/05 01:55:44;;;;;;;9.75;3.50;;;13.20;99.90;;;;;;5047847;28;20466;-67
2023/10/05 01:58:23;;;;;;;15.18;3.92;;;12.90;99.90;;;;;;5043051;28;20474;-66
2023/10/05 02:00:49;;;;;;;15.23;4.10;;;12.90;99.90;;;;;;5031991;28;20539;-67
2023/10/05 02:03:18;;;;;;;9.70;3.60;;;13.00;99.90;;;;;;5032215;28;20410;-67
2023/10/05 02:05:47;;;;;;;12.05;3.55;;;12.80;99.90;;;;;;5040578;28;20450;-67
2023/10/05 02:08:14;;;;;;;10.90;3.63;;;12.90;99.90;;;;;;5040783;28;20662;-66
2023/10/05 02:10:46;;;;;;;11.40;3.83;;;13.00;99.90;;;;;;5043361;28;20413;-65
2023/10/05 02:13:14;;;;;;;14.18;3.30;;;13.10;99.90;;;;;;5043195;28;20567;-66
2023/10/05 02:15:40;;;;;;;7.65;3.30;;;12.70;99.90;;;;;;5042653;28;20408;-66
2023/10/05 02:18:17;;;;;;;9.53;3.43;;;;;;;;;;5040013;28;20987;-66
2023/10/05 02:20:46;;;;;;;10.13;3.60;;;12.80;99.90;;;;;;5041248;28;20434;-67
2023/10/05 02:23:25;;;;;;;8.17;3.20;;;12.70;99.90;;;;;;5047075;28;20413;-66
2023/10/05 02:25:57;;;;;;;11.85;3.83;;;12.70;99.90;;;;;;5044188;28;20796;-67
2023/10/05 02:28:26;;;;;;;12.10;3.45;;;12.70;99.90;;;;;;5043039;28;20413;-66
2023/10/05 02:30:54;;;;;;;9.70;3.75;;;12.80;99.90;;;;;;5045221;28;20890;-67
2023/10/05 02:33:24;;;;;;;11.05;3.60;;;12.60;99.90;;;;;;5046317;28;20497;-66
2023/10/05 02:35:55;;;;;;;9.25;3.40;;;12.70;99.90;;;;;;5043732;28;20420;-67
2023/10/05 02:38:22;;;;;;;8.10;3.28;;;12.80;99.90;;;;;;5045795;28;20456;-67
2023/10/05 02:40:54;;;;;;;11.30;3.72;;;12.70;99.90;;;;;;5040345;28;20415;-66
2023/10/05 02:43:27;;;;;;;10.23;3.20;;;12.70;99.90;;;;;;5040574;28;20418;-66
2023/10/05 02:46:01;;;;;;;11.38;3.38;;;12.70;99.90;;;;;;5039498;28;20414;-67
2023/10/05 02:48:30;;;;;;;8.65;3.53;;;13.30;99.90;;;;;;5042890;28;20409;-66
2023/10/05 02:50:57;;;;;;;11.10;3.40;;;12.50;99.90;;;;;;5042011;28;20898;-66
2023/10/05 02:53:25;;;;;;;12.85;3.55;;;12.80;99.90;;;;;;5044977;28;20443;-66
2023/10/05 02:55:54;;;;;;;8.60;3.25;;;12.70;99.90;;;;;;5042110;28;20451;-66
2023/10/05 02:58:22;;;;;;;11.50;3.70;;;12.50;99.90;;;;;;5041306;28;20540;-66
2023/10/05 03:00:49;;;;;;;16.50;3.55;;;12.70;99.90;;;;;;5042252;28;20515;-66
2023/10/05 03:03:17;;;;;;;10.63;3.47;;;12.60;99.90;;;;;;5047726;28;20504;-66
2023/10/05 03:05:43;;;;;;;9.70;3.53;;;12.60;99.90;;;;;;5048753;28;20417;-66
2023/10/05 03:08:10;;;;;;;10.27;3.67;;;12.80;99.90;;;;;;5046997;28;20822;-66
2023/10/05 03:10:37;;;;;;;9.95;3.35;;;12.80;99.90;;;;;;5046150;28;20799;-66
2023/10/05 03:13:05;;;;;;;8.25;2.72;;;12.80;99.90;;;;;;5039653;28;20457;-66
2023/10/05 03:15:34;;;;;;;8.97;3.17;;;12.80;99.90;;;;;;5042579;28;20463;-66
2023/10/05 03:18:01;;;;;;;10.13;3.20;;;12.60;99.90;;;;;;5038333;28;20441;-66
2023/10/05 03:20:30;;;;;;;8.48;3.00;;;12.70;99.90;;;;;;5041752;28;20846;-66
2023/10/05 03:22:56;;;;;;;9.55;3.00;;;12.80;99.90;;;;;;5044034;28;20508;-66
2023/10/05 03:25:25;;;;;;;8.63;3.15;;;12.50;99.90;;;;;;5045014;28;20471;-66
2023/10/05 03:27:51;;;;;;;11.77;3.10;;;12.80;99.90;;;;;;5039834;28;20407;-66
2023/10/05 03:30:23;;;;;;;11.07;3.58;;;12.50;99.90;;;;;;5039842;28;20419;-67
2023/10/05 03:32:51;;;;;;;6.40;2.80;;;12.70;99.90;;;;;;5042050;28;20448;-67
2023/10/05 03:35:22;;;;;;;10.88;3.13;;;12.60;99.90;;;;;;5038756;28;20497;-67
2023/10/05 03:37:50;;;;;;;9.60;3.28;;;12.70;99.90;;;;;;5038951;28;20434;-66
2023/10/05 03:40:22;;;;;;;9.27;3.33;;;12.50;99.90;;;;;;5041666;28;20413;-66
2023/10/05 03:42:56;;;;;;;7.13;3.15;;;12.90;99.90;;;;;;5034010;28;20429;-66
2023/10/05 03:45:23;;;;;;;9.50;3.23;;;12.60;99.90;;;;;;5042020;28;20530;-66
2023/10/05 03:47:50;;;;;;;12.98;3.13;;;12.70;99.90;;;;;;5044864;28;20489;-66
2023/10/05 03:50:18;;;;;;;8.23;3.13;;;12.70;99.90;;;;;;5039593;28;20498;-66
2023/10/05 03:52:45;;;;;;;9.80;3.58;;;12.70;99.90;;;;;;5041685;28;20424;-66
2023/10/05 03:55:18;;;;;;;10.23;3.37;;;12.40;99.90;;;;;;5044015;28;20409;-66
2023/10/05 03:57:45;;;;;;;10.18;3.35;;;12.60;99.90;;;;;;5038770;28;20448;-67
2023/10/05 04:00:23;;;;;;;10.43;3.22;;;12.60;99.90;;;;;;5040540;28;20447;-66
2023/10/05 04:02:50;;;;;;;11.40;3.30;;;12.70;99.90;;;;;;5041554;28;20413;-66
2023/10/05 04:05:20;;;;;;;11.45;3.45;;;12.50;99.90;;;;;;5041450;28;21020;-66
2023/10/05 04:07:48;;;;;;;10.13;3.20;;;12.60;99.90;;;;;;5039626;28;20411;-66
2023/10/05 04:10:21;;;;;;;12.25;3.25;;;12.40;99.90;;;;;;5041687;28;20430;-66
2023/10/05 04:12:49;;;;;;;7.30;3.03;;;12.80;99.90;;;;;;5039627;28;20950;-66
2023/10/05 04:15:18;;;;;;;7.65;2.85;;;12.30;99.90;;;;;;5038551;28;20414;-66
2023/10/05 04:17:48;;;;;;;12.20;3.33;;;12.50;99.90;;;;;;5041679;28;20458;-67
2023/10/05 04:20:19;;;;;;;9.48;3.08;;;12.80;99.90;;;;;;5041110;28;20641;-67
2023/10/05 04:22:47;;;;;;;12.68;3.38;;;12.10;99.90;;;;;;5041857;28;20422;-66
2023/10/05 04:25:16;;;;;;;9.95;3.28;;;12.40;99.90;;;;;;5042848;28;20488;-66
2023/10/05 04:27:44;;;;;;;9.82;3.28;;;12.50;99.90;;;;;;5042110;28;20411;-66
2023/10/05 04:30:14;;;;;;;6.70;2.72;;;12.30;99.90;;;;;;5039672;28;20417;-66
2023/10/05 04:32:41;;;;;;;8.98;2.90;;;12.10;99.90;;;;;;5040980;28;20786;-66
2023/10/05 04:35:14;;;;;;;9.07;3.30;;;12.20;99.90;;;;;;5038643;28;20423;-66
2023/10/05 04:37:43;;;;;;;9.63;3.10;;;;;;;;;;5037333;28;20477;-66
2023/10/05 04:40:11;;;;;;;10.13;2.95;;;12.30;99.90;;;;;;5029864;28;20501;-66
2023/10/05 04:42:39;;;;;;;10.40;2.88;;;12.30;99.90;;;;;;5029541;28;20418;-66
2023/10/05 04:45:11;;;;;;;11.68;3.35;;;12.30;99.90;;;;;;5029274;28;20617;-66
2023/10/05 04:47:38;;;;;;;9.37;3.00;;;;;;;;;;5032420;28;20521;-66
2023/10/05 04:50:06;;;;;;;10.80;3.47;;;12.20;99.90;;;;;;5033398;28;20497;-67
2023/10/05 04:52:34;;;;;;;9.43;3.17;;;12.50;99.90;;;;;;5041503;28;20409;-66
2023/10/05 04:55:14;;;;;;;11.73;3.22;;;12.00;99.90;;;;;;5045590;28;20422;-66
2023/10/05 04:57:49;;;;;;;9.95;3.17;;;12.40;99.90;;;;;;5047133;28;20863;-66
2023/10/05 05:03:05;;;;;;;10.15;2.88;;;;;;;;;;5049176;28;20405;-65
2023/10/05 05:05:53;;;;;;;11.73;3.75;;;12.40;99.90;;;;;;5044658;28;20444;-64
2023/10/05 05:08:20;;;;;;;12.30;3.17;;;12.20;99.90;;;;;;5045198;28;20745;-65
2023/10/05 05:10:46;;;;;;;9.73;3.17;;;12.20;99.90;;;;;;5042999;28;20512;-65
2023/10/05 05:13:14;;;;;;;12.50;3.33;;;12.30;99.90;;;;;;5044012;28;20409;-65
2023/10/05 05:15:42;;;;;;;10.95;3.35;;;12.30;99.90;;;;;;5041245;28;20415;-65
2023/10/05 05:18:14;;;;;;;12.13;3.67;;;12.20;99.90;;;;;;5041817;28;20437;-66
2023/10/05 05:20:41;;;;;;;12.77;3.67;;;12.30;99.90;;;;;;5044144;28;20410;-65
2023/10/05 05:23:10;;;;;;;11.88;3.35;;;12.30;99.90;;;;;;5045957;28;20455;-65
2023/10/05 05:25:38;;;;;;;8.95;2.90;;;11.90;99.90;;;;;;5047856;28;20414;-66
2023/10/05 05:28:06;;;;;;;10.65;3.25;;;12.30;99.90;;;;;;5032562;28;20495;-66
2023/10/05 05:30:36;;;;;;;11.57;3.40;;;12.30;99.90;;;;;;5032685;28;20419;-66
2023/10/05 05:33:09;;;;;;;9.30;3.30;;;12.10;99.90;;;;;;5031707;28;20932;-65
2023/10/05 05:35:36;;;;;;;11.85;3.65;;;12.30;99.90;;;;;;5032428;28;20445;-66
2023/10/05 05:38:04;;;;;;;8.43;3.30;;;12.10;99.90;;;;;;5032391;28;20438;-66
2023/10/05 05:40:34;;;;;;;8.43;3.03;;;12.40;99.90;;;;;;5043878;28;20787;-65
2023/10/05 05:43:06;;;;;;;9.23;2.92;;;12.30;99.90;;;;;;5042580;28;20414;-65
2023/10/05 05:45:35;;;;;;;13.50;3.47;;;12.20;99.90;;;;;;5040618;28;20829;-66
2023/10/05 05:48:08;;;;;;;10.40;3.13;;;12.50;99.90;;;;;;5042398;28;20958;-66
2023/10/05 05:50:39;;;;;;;13.13;3.40;;;12.00;99.90;;;;;;5043817;28;20475;-66
2023/10/05 05:53:06;;;;;;;9.45;3.50;;;12.20;99.90;;;;;;5044570;28;20409;-65
2023/10/05 05:55:32;;;;;;;9.60;3.47;;;12.60;99.90;;;;;;5051935;28;20409;-66
2023/10/05 05:58:00;;;;;;;11.30;3.65;;;12.20;99.90;;;;;;5039797;28;20978;-65
2023/10/05 06:00:28;;;;;;;11.82;3.65;;;12.20;99.90;;;;;;5042867;28;20421;-66
2023/10/05 06:02:58;;;;;;;11.05;3.38;;;12.10;99.90;;;;;;5043116;28;20417;-66
2023/10/05 06:05:25;;;;;;;13.83;3.90;;;;;;;;;;5040849;28;20473;-65
2023/10/05 06:07:51;;;;;;;13.10;3.63;;;12.40;99.90;;;;;;5039296;28;20788;-64
2023/10/05 06:10:28;;;;;;;13.55;3.70;;;12.20;99.90;;;;;;5047568;28;20756;-65
2023/10/05 06:12:55;;;;;;;10.07;3.05;;;12.40;99.90;;;;;;5042272;28;20485;-65
2023/10/05 06:15:21;;;;;;;8.07;2.80;;;12.10;99.90;;;;;;5046116;28;20445;-65
2023/10/05 06:17:48;;;;;;;10.38;2.90;;;12.30;99.90;;;;;;5042463;28;20427;-65
2023/10/05 06:20:17;;;;;;;10.68;3.60;;;12.80;99.90;;;;;;5055014;28;20516;-65
2023/10/05 06:22:46;;;;;;;8.18;3.35;;;12.50;99.90;;;;;;5049815;28;20409;-65
2023/10/05 06:25:15;;;;;;;8.13;3.30;;;12.40;99.90;;;;;;5047661;28;20951;-66
2023/10/05 06:27:43;;;;;;;10.32;3.00;;;12.60;99.90;;;;;;5041663;28;20445;-66
2023/10/05 06:30:11;;;;;;;8.52;3.20;;;12.50;99.90;;;;;;5042951;28;20482;-66
2023/10/05 06:32:37;;;;;;;9.75;3.50;;;12.70;99.90;;;;;;5040429;28;20411;-66
2023/10/05 06:35:08;;;;;;;9.48;3.20;;;12.60;99.90;;;;;;5041440;28;20413;-65
2023/10/05 06:37:37;;;;;;;10.98;2.80;;;12.60;99.90;;;;;;5041617;28;20417;-66
2023/10/05 06:40:09;;;;;;;15.10;3.28;;;12.80;99.90;;;;;;5040639;28;20425;-66
2023/10/05 06:42:37;;;;;;;11.20;3.23;;;12.90;99.90;;;;;;5040213;28;20501;-66
2023/10/05 06:45:07;;;;;;;11.80;3.60;;;12.80;99.90;;;;;;5039892;28;20506;-66
2023/10/05 06:47:38;;;;;;;9.25;3.28;;;13.00;99.90;;;;;;5040860;28;20414;-66
2023/10/05 06:50:08;;;;;;;10.45;3.45;;;12.70;99.90;;;;;;5042377;28;20465;-65
2023/10/05 06:52:40;;;;;;;8.13;3.23;;;12.90;99.90;;;;;;5041310;28;21046;-65
2023/10/05 06:55:08;;;;;;;14.30;3.47;;;12.80;99.90;;;;;;5045557;28;20838;-66
2023/10/05 06:57:36;;;;;;;11.43;3.35;;;12.80;99.90;;;;;;5041376;28;20428;-66
2023/10/05 07:00:16;;;;;;;12.02;3.40;;;13.10;99.90;;;;;;5041682;28;20417;-66
2023/10/05 07:02:43;;;;;;;10.57;3.45;;;13.10;99.90;;;;;;5040702;28;20415;-65
2023/10/05 07:05:11;;;;;;;10.10;3.50;;;;;;;;;;5039472;28;20452;-66
2023/10/05 07:07:40;;;;;;;8.90;3.00;;;12.80;99.90;;;;;;5039114;28;20763;-65
2023/10/05 07:10:08;;;;;;;13.20;3.58;;;12.90;99.90;;;;;;5039436;28;20470;-65
2023/10/05 07:12:39;;;;;;;13.63;3.35;;;13.20;99.90;;;;;;5041336;28;20484;-66
2023/10/05 07:15:07;;;;;;;10.95;3.83;;;13.00;99.90;;;;;;5041118;28;20636;-66
2023/10/05 07:17:34;;;;;;;11.45;3.15;;;13.00;99.90;;;;;;5041278;28;20413;-65
2023/10/05 07:20:01;;;;;;;8.30;3.67;;;13.00;99.90;;;;;;5039313;28;21153;-65
2023/10/05 07:22:28;;;;;;;9.45;3.47;;;13.10;99.90;;;;;;5042811;28;20500;-65
2023/10/05 07:24:57;;;;;;;13.23;3.63;;;13.30;99.90;;;;;;5043671;28;20414;-65
2023/10/05 07:27:23;;;;;;;9.40;3.53;;;13.40;99.90;;;;;;5041320;28;21060;-65
2023/10/05 07:29:50;;;;;;;10.80;3.63;;;13.10;99.90;;;;;;5043046;28;20409;-65
2023/10/05 07:32:17;;;;;;;10.40;3.45;;;13.20;99.90;;;;;;5044078;28;20425;-65
2023/10/05 07:34:44;;;;;;;10.80;3.53;;;13.70;99.90;;;;;;5039854;28;20410;-65
2023/10/05 07:37:11;;;;;;;8.85;3.33;;;13.60;99.90;;;;;;5043718;28;20478;-65
2023/10/05 07:39:40;;;;;;;9.88;3.67;;;13.70;99.90;;;;;;5039635;28;20486;-65
2023/10/05 07:42:08;;;;;;;8.87;3.40;;;;;;;;;;5041275;28;21121;-65
2023/10/05 07:44:36;;;;;;;8.90;3.30;;;13.60;99.90;;;;;;5040812;28;20945;-66
2023/10/05 07:47:03;;;;;;;8.82;3.10;;;13.90;99.90;;;;;;5045125;28;20414;-66
2023/10/05 07:49:30;;;;;;;15.18;3.90;;;13.70;99.90;;;;;;5043104;28;20413;-66
2023/10/05 07:51:57;;;;;;;11.82;3.55;;;13.70;99.90;;;;;;5038417;28;20418;-66
2023/10/05 07:54:24;;;;;;;10.25;3.20;;;;;;;;;;5048187;28;20417;-66
2023/10/05 07:56:52;;;;;;;10.15;3.53;;;13.80;99.90;;;;;;5044980;28;20921;-66
2023/10/05 07:59:21;;;;;;;12.63;3.95;;;13.90;99.90;;;;;;5041521;28;20526;-66
2023/10/05 08:01:49;;;;;;;11.88;3.58;;;13.60;99.90;;;;;;5039887;28;20821;-67
2023/10/05 08:04:15;;;;;;;9.95;3.40;;;13.90;99.90;;;;;;5046884;28;20421;-66
2023/10/05 08:06:44;;;;;;;13.68;3.40;;;;;;;;;;5041656;28;20413;-68
2023/10/05 08:09:15;;;;;;;9.85;3.80;;;14.00;99.90;;;;;;5039887;28;20456;-67
2023/10/05 08:11:42;;;;;;;8.65;3.83;;;;;;;;;;5037273;28;20414;-70
2023/10/05 08:14:09;;;;;;;11.60;4.03;;;14.00;99.90;;;;;;5038986;28;20467;-65
2023/10/05 08:16:37;;;;;;;9.93;3.50;;;14.70;99.90;;;;;;5040132;28;20421;-68
2023/10/05 08:19:05;;;;;;;9.57;3.67;;;14.30;99.90;;;;;;5037381;28;20482;-66
2023/10/05 08:21:32;;;;;;;12.00;3.93;;;14.20;99.90;;;;;;5040112;28;20474;-67
2023/10/05 08:23:59;;;;;;;11.05;4.13;;;14.30;99.90;;;;;;5044689;28;20892;-66
2023/10/05 08:26:28;;;;;;;10.73;3.70;;;14.10;99.90;;;;;;5044581;28;20448;-66
2023/10/05 08:28:56;;;;;;;10.60;3.55;;;;;;;;;;5045243;28;20454;-66
2023/10/05 08:31:24;;;;;;;12.00;3.70;;;14.40;99.90;;;;;;5040275;28;20460;-65
2023/10/05 08:33:53;;;;;;;10.40;3.50;;;;;;;;;;5032450;28;20410;-67
2023/10/05 08:36:20;;;;;;;13.70;3.72;;;14.40;99.90;;;;;;5046369;28;21232;-67
2023/10/05 08:38:49;;;;;;;10.23;3.42;;;14.60;99.90;;;;;;5040702;28;20667;-67
2023/10/05 08:41:28;;;;;;;12.20;3.85;;;13.40;99.90;;;;;;5025318;28;20466;-66
2023/10/05 08:43:55;;;;;;;9.68;3.40;;;14.50;99.90;;;;;;5022978;28;20431;-67
2023/10/05 08:46:23;;;;;;;12.05;3.72;;;14.60;99.90;;;;;;5023206;28;20415;-67
2023/10/05 08:48:49;;;;;;;12.15;3.70;;;14.60;99.90;;;;;;5019714;28;20760;-67
2023/10/05 08:51:17;;;;;;;8.85;3.45;;;14.50;99.90;;;;;;5023202;28;20836;-66
2023/10/05 08:53:48;;;;;;;12.32;3.75;;;14.80;99.90;;;;;;5025567;28;20452;-67
2023/10/05 08:56:16;;;;;;;11.05;4.28;;;14.90;99.90;;;;;;5022904;28;20417;-67
2023/10/05 08:58:45;;;;;;;15.52;6.13;;;15.30;99.90;;;;;;5029158;28;20453;-67
2023/10/05 09:01:27;;;;;;;13.85;5.38;;;14.90;99.90;;;;;;5023308;28;20462;-67
2023/10/05 09:04:01;;;;;;;9.02;3.53;;;15.00;79.50;;;;;;5018074;28;20922;-67
2023/10/05 09:06:30;;;;;;;8.88;3.28;;;15.10;62.40;;;;;;5020717;28;20746;-67
2023/10/05 09:09:07;;;;;;;7.90;3.15;;;15.10;38.20;;;;;;5026289;28;20418;-67
2023/10/05 09:11:35;;;;;;;12.10;3.50;;;15.10;9.50;;;;;;5024487;28;20467;-67
2023/10/05 09:14:12;;;;;;;10.35;3.63;;;15.30;60.10;;;;;;5023311;28;20423;-67
2023/10/05 09:16:42;;;;;;;9.48;3.60;;;15.20;70.40;;;;;;5023047;28;20412;-66
2023/10/05 09:19:12;;;;;;;10.70;3.28;;;15.30;66.50;;;;;;5024206;28;20427;-67
2023/10/05 09:21:55;;;;;;;12.88;3.40;;;15.40;24.30;;;;;;5024471;28;20506;-67
2023/10/05 09:24:22;;;;;;;10.93;3.27;;;15.40;17.10;;;;;;5028472;28;20430;-66
2023/10/05 09:26:56;;;;;;;8.10;3.08;;;15.50;1.00;;;;;;5024375;28;20925;-67
2023/10/05 09:29:28;;;;;;;10.75;3.30;;;15.60;1.00;;;;;;5023142;28;20419;-67
2023/10/05 09:31:56;;;;;;;11.75;3.30;;;;;;;;;;5026433;28;20886;-69
2023/10/05 09:34:41;;;;;;;12.63;3.63;;;15.60;1.00;;;;;;5034448;28;20431;-68
2023/10/05 09:37:10;;;;;;;13.30;3.47;;;15.50;1.00;;;;;;5033863;28;20833;-68
2023/10/05 09:39:43;;;;;;;9.25;3.97;;;15.70;1.00;;;;;;5032413;28;20435;-69
2023/10/05 09:42:22;;;;;;;9.63;3.40;;;15.60;2.30;;;;;;5022946;28;20431;-68
2023/10/05 09:44:53;;;;;;;9.80;3.17;;;15.70;1.00;;;;;;5024496;28;20415;-68
2023/10/05 09:47:25;;;;;;;9.23;3.60;;;15.90;1.00;;;;;;5023955;28;20423;-67
2023/10/05 09:49:54;;;;;;;8.57;3.30;;;15.90;1.00;;;;;;5022827;28;20843;-68
2023/10/05 09:52:24;;;;;;;11.95;3.38;;;;;;;;;;5021389;28;20894;-68
2023/10/05 09:54:51;;;;;;;41.13;20.55;;;15.90;1.00;;;;;;5027059;28;20415;-67
2023/10/05 09:57:20;;;;;;;13.10;3.92;;;15.80;1.00;;;;;;5023441;28;20966;-68
2023/10/05 09:59:57;;;;;;;11.63;4.25;;;15.90;1.00;;;;;;5021105;28;20440;-68
2023/10/05 10:02:24;;;;;;;23.33;7.53;;;;;;;;;;5012100;28;20409;-69
2023/10/05 10:04:54;;;;;;;13.27;4.60;;;16.10;1.00;;;;;;5012143;28;20744;-69
2023/10/05 10:07:23;;;;;;;22.27;6.22;;;;;;;;;;5023338;28;20407;-68
2023/10/05 10:09:53;;;;;;;24.60;6.10;;;16.00;1.00;;;;;;5021560;28;20425;-67
2023/10/05 10:12:27;;;;;;;27.93;6.40;;;15.90;1.00;;;;;;5019995;28;20479;-68
2023/10/05 10:14:58;;;;;;;19.13;5.25;;;16.00;1.00;;;;;;5020208;28;20417;-68
2023/10/05 10:17:31;;;;;;;10.57;3.60;;;16.30;1.00;;;;;;5020113;28;20792;-68
2023/10/05 10:20:16;;;;;;;11.88;3.47;;;16.10;1.00;;;;;;5021671;28;20435;-69
2023/10/05 10:23:00;;;;;;;7.65;2.92;;;16.40;1.00;;;;;;5015416;28;20421;-67
2023/10/05 10:25:30;;;;;;;8.77;3.28;;;16.40;1.00;;;;;;5021820;28;20421;-68
2023/10/05 10:28:20;;;;;;;10.77;3.50;;;16.20;1.00;;;;;;5020476;28;20409;-68
2023/10/05 10:31:11;;;;;;;10.50;3.05;;;16.60;1.00;;;;;;5011722;28;20420;-68
2023/10/05 10:33:40;;;;;;;9.77;3.17;;;16.30;99.90;;;;;;5019012;28;20419;-69
2023/10/05 10:36:18;;;;;;;7.20;3.08;;;16.20;1.00;;;;;;5021122;28;20421;-68
2023/10/05 10:38:48;;;;;;;11.60;3.93;;;16.50;1.00;;;;;;5019873;28;20432;-69
2023/10/05 10:41:17;;;;;;;12.17;3.60;;;16.60;1.00;;;;;;5020702;28;20424;-68
2023/10/05 10:43:49;;;;;;;9.25;3.25;;;16.20;99.90;;;;;;5022123;28;20489;-68
2023/10/05 10:46:28;;;;;;;12.30;3.40;;;16.00;1.00;;;;;;5020984;28;20417;-69
2023/10/05 10:48:58;;;;;;;11.88;3.28;;;16.50;99.90;;;;;;5021853;28;20424;-68
2023/10/05 10:51:31;;;;;;;7.55;2.97;;;16.40;99.90;;;;;;5020882;28;22553;-69
2023/10/05 10:54:08;;;;;;;11.80;3.30;;;16.40;99.90;;;;;;5024360;28;20498;-69
2023/10/05 10:56:41;;;;;;;12.48;3.63;;;16.50;99.90;;;;;;5024524;28;20415;-69
2023/10/05 10:59:10;;;;;;;11.85;3.13;;;;;;;;;;5020211;28;20490;-69
2023/10/05 11:01:43;;;;;;;8.20;2.83;;;16.60;99.90;;;;;;5019702;28;20497;-69
2023/10/05 11:04:25;;;;;;;8.52;3.03;;;16.80;99.90;;;;;;5019422;28;20474;-68
2023/10/05 11:06:59;;;;;;;17.43;9.93;;;17.00;1.00;;;;;;5010653;28;20418;-68
2023/10/05 11:09:34;;;;;;;10.63;3.58;;;17.00;1.00;;;;;;5010558;28;20474;-67
2023/10/05 11:12:10;;;;;;;10.05;2.97;;;17.00;1.00;;;;;;5019097;28;20450;-66
2023/10/05 11:14:45;;;;;;;9.88;3.00;;;17.10;1.00;;;;;;5021047;28;20432;-67
2023/10/05 11:17:35;;;;;;;9.05;3.17;;;17.10;1.00;;;;;;5023811;28;20430;-66
2023/10/05 11:20:14;;;;;;;10.50;2.92;;;16.90;99.90;;;;;;5017587;28;20914;-67
2023/10/05 11:22:43;;;;;;;10.73;3.20;;;17.00;1.00;;;;;;5024125;28;20415;-65
2023/10/05 11:25:15;;;;;;;8.00;2.65;;;18.50;99.90;;;;;;5023135;28;20450;-67
2023/10/05 11:27:48;;;;;;;7.70;3.13;;;17.30;97.40;;;;;;5022516;28;20473;-67
2023/10/05 11:30:18;;;;;;;9.97;3.27;;;18.60;17.10;;;;;;5025034;28;20411;-68
2023/10/05 11:32:46;;;;;;;10.07;3.50;;;17.40;99.90;;;;;;5014940;28;20428;-66
2023/10/05 11:35:15;;;;;;;7.90;2.87;;;;;;;;;;5026176;28;20419;-71
2023/10/05 11:37:44;;;;;;;9.13;3.22;;;17.30;1.00;;;;;;5020897;28;20457;-65
2023/10/05 11:40:19;;;;;;;9.10;3.13;;;17.50;98.00;;;;;;5021793;28;20610;-68
2023/10/05 11:42:48;;;;;;;11.63;3.63;;;17.90;99.90;;;;;;5022756;28;20429;-66
2023/10/05 11:45:16;;;;;;;12.27;3.20;;;17.40;1.00;;;;;;5023927;28;20432;-66
2023/10/05 11:47:48;;;;;;;9.23;3.10;;;;;;;;;;5021322;28;20896;-65
2023/10/05 11:50:24;;;;;;;10.50;3.38;;;17.40;99.90;;;;;;5020959;28;20496;-67
2023/10/05 11:52:52;;;;;;;9.43;3.47;;;17.50;99.90;;;;;;5024451;28;20472;-67
2023/10/05 11:55:20;;;;;;;8.95;3.00;;;18.80;99.90;;;;;;5020264;28;20871;-66
2023/10/05 11:57:47;;;;;;;9.43;3.40;;;;;;;;;;5018542;28;20431;-68
2023/10/05 12:00:16;;;;;;;8.07;3.17;;;17.50;70.10;;;;;;5016943;28;20439;-67
2023/10/05 12:02:43;;;;;;;8.43;3.28;;;17.70;99.90;;;;;;5009453;28;20459;-69
2023/10/05 12:05:11;;;;;;;8.88;3.55;;;17.40;99.90;;;;;;5016201;28;20440;-69
2023/10/05 12:07:41;;;;;;;8.27;3.25;;;17.50;99.90;;;;;;5018097;28;20418;-70
2023/10/05 12:10:10;;;;;;;12.65;3.83;;;17.60;99.90;;;;;;5018810;28;20443;-68
2023/10/05 12:12:41;;;;;;;8.57;3.15;;;17.70;99.90;;;;;;5020437;28;20421;-69
2023/10/05 12:15:13;;;;;;;9.70;2.92;;;17.80;1.00;;;;;;5024116;28;20468;-70
2023/10/05 12:17:40;;;;;;;9.13;3.20;;;17.90;99.90;;;;;;5025080;28;20465;-68
2023/10/05 12:20:12;;;;;;;7.68;3.13;;;18.10;1.00;;;;;;5018849;28;20529;-69
2023/10/05 12:22:39;;;;;;;9.90;3.22;;;18.20;1.00;;;;;;5026236;28;20415;-69
2023/10/05 12:25:08;;;;;;;8.93;3.38;;;18.10;99.90;;;;;;5020285;28;20424;-68
2023/10/05 12:27:36;;;;;;;8.02;3.08;;;17.70;99.90;;;;;;5021616;28;20414;-69
2023/10/05 12:30:10;;;;;;;13.15;3.72;;;18.30;99.90;;;;;;5022247;28;20469;-69
2023/10/05 12:32:38;;;;;;;8.80;3.13;;;17.70;99.90;;;;;;5017940;28;20489;-69
2023/10/05 12:35:07;;;;;;;8.30;3.25;;;17.70;99.90;;;;;;5023101;28;20734;-69
2023/10/05 12:37:34;;;;;;;10.93;3.20;;;;;;;;;;5020845;28;20423;-69
2023/10/05 12:40:17;;;;;;;10.15;3.45;;;17.70;1.00;;;;;;5015242;28;20436;-69
2023/10/05 12:42:49;;;;;;;6.63;3.13;;;17.40;99.90;;;;;;5017915;28;20530;-67
2023/10/05 12:45:20;;;;;;;8.85;2.70;;;17.50;99.90;;;;;;5021255;28;20531;-68
2023/10/05 12:47:47;;;;;;;8.85;2.80;;;17.50;99.90;;;;;;5016100;28;20427;-68
2023/10/05 12:50:14;;;;;;;8.23;2.83;;;;;;;;;;5019502;28;20887;-71
2023/10/05 12:52:41;;;;;;;8.13;3.00;;;17.70;1.00;;;;;;5027763;28;20426;-70
2023/10/05 12:55:09;;;;;;;6.82;2.78;;;;;;;;;;5013007;28;20508;-67
2023/10/05 12:57:36;;;;;;;7.07;3.22;;;17.80;99.90;;;;;;5022579;28;20418;-66
2023/10/05 13:00:19;;;;;;;7.88;3.25;;;18.00;1.00;;;;;;5023101;28;20871;-68
2023/10/05 13:02:51;;;;;;;9.15;2.95;;;17.70;98.60;;;;;;5026029;28;20508;-66
2023/10/05 13:05:19;;;;;;;7.53;2.92;;;18.20;99.90;;;;;;5025834;28;20439;-68
2023/10/05 13:07:46;;;;;;;9.48;3.20;;;18.10;99.90;;;;;;5026669;28;20512;-67
2023/10/05 13:10:21;;;;;;;6.13;2.50;;;18.30;1.00;;;;;;5026431;28;20499;-66
2023/10/05 13:12:49;;;;;;;7.82;2.80;;;18.30;99.90;;;;;;5021200;28;20415;-66
2023/10/05 13:15:19;;;;;;;6.50;2.95;;;18.20;99.90;;;;;;5023418;28;20478;-66
2023/10/05 13:17:47;;;;;;;6.82;3.08;;;18.10;39.70;;;;;;5020785;28;20492;-66
2023/10/05 13:20:24;;;;;;;6.97;2.63;;;;;;;;;;5024712;28;20431;-67
2023/10/05 13:22:53;;;;;;;8.30;2.92;;;18.20;99.90;;;;;;5026459;28;20469;-67